sensor_id;sensor_type;location;lat;lon;timestamp;temperature;humidity
63445;DHT22;49573;47.682;9.170;2023-09-19T00:00:16;17.80;78.00
63445;DHT22;49573;47.682;9.170;2023-09-19T00:03:06;17.80;78.10
63445;DHT22;49573;47.682;9.170;2023-09-19T00:05:52;17.80;78.30
63445;DHT22;49573;47.682;9.170;2023-09-19T00:08:38;17.80;78.30
63445;DHT22;49573;47.682;9.170;2023-09-19T00:11:25;17.80;78.10
63445;DHT22;49573;47.682;9.170;2023-09-19T00:14:12;17.80;78.00
63445;DHT22;49573;47.682;9.170;2023-09-19T00:17:00;17.80;78.20
63445;DHT22;49573;47.682;9.170;2023-09-19T00:19:47;17.80;78.20
63445;DHT22;49573;47.682;9.170;2023-09-19T00:22:34;17.80;78.30
63445;DHT22;49573;47.682;9.170;2023-09-19T00:25:20;17.80;78.50
63445;DHT22;49573;47.682;9.170;2023-09-19T00:28:07;17.80;78.40
63445;DHT22;49573;47.682;9.170;2023-09-19T00:30:53;17.80;78.70
63445;DHT22;49573;47.682;9.170;2023-09-19T00:33:42;17.80;78.80
63445;DHT22;49573;47.682;9.170;2023-09-19T00:36:30;17.70;78.90
63445;DHT22;49573;47.682;9.170;2023-09-19T00:39:16;17.70;78.90
63445;DHT22;49573;47.682;9.170;2023-09-19T00:42:02;17.70;78.90
63445;DHT22;49573;47.682;9.170;2023-09-19T00:44:50;17.70;79.40
63445;DHT22;49573;47.682;9.170;2023-09-19T00:47:38;17.70;79.10
63445;DHT22;49573;47.682;9.170;2023-09-19T00:50:25;17.60;79.20
63445;DHT22;49573;47.682;9.170;2023-09-19T00:53:15;17.70;79.20
63445;DHT22;49573;47.682;9.170;2023-09-19T00:56:03;17.70;79.10
63445;DHT22;49573;47.682;9.170;2023-09-19T00:58:53;17.60;78.90
63445;DHT22;49573;47.682;9.170;2023-09-19T01:01:39;17.60;78.90
63445;DHT22;49573;47.682;9.170;2023-09-19T01:04:25;17.70;78.90
63445;DHT22;49573;47.682;9.170;2023-09-19T01:07:12;17.60;78.60
63445;DHT22;49573;47.682;9.170;2023-09-19T01:10:02;17.60;78.60
63445;DHT22;49573;47.682;9.170;2023-09-19T01:12:55;17.60;78.70
63445;DHT22;49573;47.682;9.170;2023-09-19T01:15:51;17.60;78.60
63445;DHT22;49573;47.682;9.170;2023-09-19T01:18:47;17.60;79.10
63445;DHT22;49573;47.682;9.170;2023-09-19T01:21:44;17.50;78.90
63445;DHT22;49573;47.682;9.170;2023-09-19T01:24:54;17.40;78.80
63445;DHT22;49573;47.682;9.170;2023-09-19T01:28:10;17.40;78.80
63445;DHT22;49573;47.682;9.170;2023-09-19T01:31:02;17.50;78.00
63445;DHT22;49573;47.682;9.170;2023-09-19T01:33:56;17.50;77.90
63445;DHT22;49573;47.682;9.170;2023-09-19T01:36:45;17.50;78.10
63445;DHT22;49573;47.682;9.170;2023-09-19T01:39:31;17.40;78.10
63445;DHT22;49573;47.682;9.170;2023-09-19T01:42:27;17.40;78.10
63445;DHT22;49573;47.682;9.170;2023-09-19T01:45:26;17.40;78.40
63445;DHT22;49573;47.682;9.170;2023-09-19T01:48:25;17.40;78.70
63445;DHT22;49573;47.682;9.170;2023-09-19T01:51:21;17.40;78.40
63445;DHT22;49573;47.682;9.170;2023-09-19T01:54:13;17.40;78.70
63445;DHT22;49573;47.682;9.170;2023-09-19T01:57:07;17.40;78.50
63445;DHT22;49573;47.682;9.170;2023-09-19T02:00:02;17.30;78.70
63445;DHT22;49573;47.682;9.170;2023-09-19T02:02:52;17.30;78.70
63445;DHT22;49573;47.682;9.170;2023-09-19T02:05:48;17.30;78.70
63445;DHT22;49573;47.682;9.170;2023-09-19T02:08:35;17.30;78.90
63445;DHT22;49573;47.682;9.170;2023-09-19T02:11:21;17.30;78.80
63445;DHT22;49573;47.682;9.170;2023-09-19T02:14:07;17.30;79.10
63445;DHT22;49573;47.682;9.170;2023-09-19T02:16:54;17.30;79.30
63445;DHT22;49573;47.682;9.170;2023-09-19T02:19:40;17.30;79.40
63445;DHT22;49573;47.682;9.170;2023-09-19T02:22:28;17.30;79.50
63445;DHT22;49573;47.682;9.170;2023-09-19T02:25:15;17.20;79.80
63445;DHT22;49573;47.682;9.170;2023-09-19T02:28:01;17.20;79.90
63445;DHT22;49573;47.682;9.170;2023-09-19T02:30:48;17.20;80.10
63445;DHT22;49573;47.682;9.170;2023-09-19T02:33:34;17.10;80.30
63445;DHT22;49573;47.682;9.170;2023-09-19T02:36:21;17.10;80.30
63445;DHT22;49573;47.682;9.170;2023-09-19T02:39:10;17.20;80.30
63445;DHT22;49573;47.682;9.170;2023-09-19T02:41:57;17.20;80.40
63445;DHT22;49573;47.682;9.170;2023-09-19T02:44:43;17.10;80.40
63445;DHT22;49573;47.682;9.170;2023-09-19T02:47:32;17.10;80.50
63445;DHT22;49573;47.682;9.170;2023-09-19T02:50:19;17.10;80.60
63445;DHT22;49573;47.682;9.170;2023-09-19T02:53:05;17.10;80.60
63445;DHT22;49573;47.682;9.170;2023-09-19T02:55:53;17.10;80.50
63445;DHT22;49573;47.682;9.170;2023-09-19T02:58:40;17.10;80.40
63445;DHT22;49573;47.682;9.170;2023-09-19T03:01:26;17.10;80.60
63445;DHT22;49573;47.682;9.170;2023-09-19T03:04:14;17.00;80.60
63445;DHT22;49573;47.682;9.170;2023-09-19T03:07:03;17.10;80.60
63445;DHT22;49573;47.682;9.170;2023-09-19T03:09:50;17.10;80.40
63445;DHT22;49573;47.682;9.170;2023-09-19T03:12:40;17.10;80.20
63445;DHT22;49573;47.682;9.170;2023-09-19T03:15:26;17.10;80.10
63445;DHT22;49573;47.682;9.170;2023-09-19T03:18:12;17.10;80.30
63445;DHT22;49573;47.682;9.170;2023-09-19T03:20:59;17.10;80.00
63445;DHT22;49573;47.682;9.170;2023-09-19T03:23:48;17.10;80.20
63445;DHT22;49573;47.682;9.170;2023-09-19T03:26:34;17.10;80.20
63445;DHT22;49573;47.682;9.170;2023-09-19T03:29:22;17.10;80.20
63445;DHT22;49573;47.682;9.170;2023-09-19T03:32:08;17.10;80.10
63445;DHT22;49573;47.682;9.170;2023-09-19T03:34:56;17.10;80.20
63445;DHT22;49573;47.682;9.170;2023-09-19T03:37:43;17.10;80.00
63445;DHT22;49573;47.682;9.170;2023-09-19T03:40:29;17.10;80.00
63445;DHT22;49573;47.682;9.170;2023-09-19T03:43:15;17.00;80.00
63445;DHT22;49573;47.682;9.170;2023-09-19T03:46:03;17.10;79.90
63445;DHT22;49573;47.682;9.170;2023-09-19T03:48:53;17.10;79.80
63445;DHT22;49573;47.682;9.170;2023-09-19T03:51:40;17.00;80.00
63445;DHT22;49573;47.682;9.170;2023-09-19T03:54:27;17.00;79.80
63445;DHT22;49573;47.682;9.170;2023-09-19T03:57:13;17.00;79.80
63445;DHT22;49573;47.682;9.170;2023-09-19T04:00:01;17.10;79.80
63445;DHT22;49573;47.682;9.170;2023-09-19T04:02:51;17.00;79.90
63445;DHT22;49573;47.682;9.170;2023-09-19T04:05:37;17.00;80.00
63445;DHT22;49573;47.682;9.170;2023-09-19T04:08:23;17.00;79.60
63445;DHT22;49573;47.682;9.170;2023-09-19T04:11:09;17.00;79.60
63445;DHT22;49573;47.682;9.170;2023-09-19T04:13:55;17.00;79.80
63445;DHT22;49573;47.682;9.170;2023-09-19T04:16:41;17.00;80.00
63445;DHT22;49573;47.682;9.170;2023-09-19T04:19:29;17.00;80.00
63445;DHT22;49573;47.682;9.170;2023-09-19T04:22:15;17.00;80.00
63445;DHT22;49573;47.682;9.170;2023-09-19T04:25:01;17.00;79.80
63445;DHT22;49573;47.682;9.170;2023-09-19T04:27:47;17.00;80.10
63445;DHT22;49573;47.682;9.170;2023-09-19T04:30:33;17.00;80.00
63445;DHT22;49573;47.682;9.170;2023-09-19T04:33:19;17.00;80.20
63445;DHT22;49573;47.682;9.170;2023-09-19T04:36:07;17.00;80.20
63445;DHT22;49573;47.682;9.170;2023-09-19T04:38:53;17.00;80.30
63445;DHT22;49573;47.682;9.170;2023-09-19T04:41:39;16.90;80.40
63445;DHT22;49573;47.682;9.170;2023-09-19T04:44:27;17.00;80.60
63445;DHT22;49573;47.682;9.170;2023-09-19T04:47:13;17.00;80.50
63445;DHT22;49573;47.682;9.170;2023-09-19T04:49:59;17.00;80.10
63445;DHT22;49573;47.682;9.170;2023-09-19T04:52:49;17.10;80.40
63445;DHT22;49573;47.682;9.170;2023-09-19T04:55:36;17.00;80.00
63445;DHT22;49573;47.682;9.170;2023-09-19T04:58:22;17.00;80.00
63445;DHT22;49573;47.682;9.170;2023-09-19T05:01:09;17.00;80.30
63445;DHT22;49573;47.682;9.170;2023-09-19T05:03:57;17.00;80.40
63445;DHT22;49573;47.682;9.170;2023-09-19T05:06:43;17.00;80.50
63445;DHT22;49573;47.682;9.170;2023-09-19T05:09:31;17.00;80.30
63445;DHT22;49573;47.682;9.170;2023-09-19T05:12:19;17.00;80.30
63445;DHT22;49573;47.682;9.170;2023-09-19T05:15:07;16.90;80.00
63445;DHT22;49573;47.682;9.170;2023-09-19T05:17:53;17.00;80.00
63445;DHT22;49573;47.682;9.170;2023-09-19T05:20:41;16.90;79.90
63445;DHT22;49573;47.682;9.170;2023-09-19T05:23:27;17.00;79.70
63445;DHT22;49573;47.682;9.170;2023-09-19T05:26:15;17.00;79.80
63445;DHT22;49573;47.682;9.170;2023-09-19T05:29:02;17.00;79.70
63445;DHT22;49573;47.682;9.170;2023-09-19T05:31:49;17.00;80.10
63445;DHT22;49573;47.682;9.170;2023-09-19T05:34:35;17.00;80.10
63445;DHT22;49573;47.682;9.170;2023-09-19T05:37:21;17.00;79.50
63445;DHT22;49573;47.682;9.170;2023-09-19T05:40:08;17.00;79.60
63445;DHT22;49573;47.682;9.170;2023-09-19T05:42:56;17.00;79.50
63445;DHT22;49573;47.682;9.170;2023-09-19T05:45:43;17.10;79.40
63445;DHT22;49573;47.682;9.170;2023-09-19T05:48:29;17.00;79.30
63445;DHT22;49573;47.682;9.170;2023-09-19T05:51:15;17.00;79.50
63445;DHT22;49573;47.682;9.170;2023-09-19T05:54:03;17.10;79.40
63445;DHT22;49573;47.682;9.170;2023-09-19T05:56:51;17.10;79.10
63445;DHT22;49573;47.682;9.170;2023-09-19T05:59:40;17.10;78.90
63445;DHT22;49573;47.682;9.170;2023-09-19T06:02:28;17.10;78.90
63445;DHT22;49573;47.682;9.170;2023-09-19T06:05:16;17.20;79.10
63445;DHT22;49573;47.682;9.170;2023-09-19T06:08:02;17.20;79.20
63445;DHT22;49573;47.682;9.170;2023-09-19T06:10:53;17.20;79.30
63445;DHT22;49573;47.682;9.170;2023-09-19T06:13:39;17.20;79.40
63445;DHT22;49573;47.682;9.170;2023-09-19T06:16:27;17.30;79.10
63445;DHT22;49573;47.682;9.170;2023-09-19T06:19:13;17.30;79.00
63445;DHT22;49573;47.682;9.170;2023-09-19T06:21:59;17.30;79.30
63445;DHT22;49573;47.682;9.170;2023-09-19T06:24:45;17.30;79.10
63445;DHT22;49573;47.682;9.170;2023-09-19T06:27:32;17.30;79.60
63445;DHT22;49573;47.682;9.170;2023-09-19T06:30:18;17.30;80.00
63445;DHT22;49573;47.682;9.170;2023-09-19T06:33:06;17.30;79.90
63445;DHT22;49573;47.682;9.170;2023-09-19T06:35:52;17.30;79.70
63445;DHT22;49573;47.682;9.170;2023-09-19T06:38:44;17.40;79.90
63445;DHT22;49573;47.682;9.170;2023-09-19T06:41:30;17.50;79.90
63445;DHT22;49573;47.682;9.170;2023-09-19T06:44:17;17.50;79.30
63445;DHT22;49573;47.682;9.170;2023-09-19T06:47:03;17.50;79.50
63445;DHT22;49573;47.682;9.170;2023-09-19T06:49:52;17.40;80.00
63445;DHT22;49573;47.682;9.170;2023-09-19T06:52:38;17.50;79.70
63445;DHT22;49573;47.682;9.170;2023-09-19T06:55:24;17.50;79.50
63445;DHT22;49573;47.682;9.170;2023-09-19T06:58:11;17.50;79.70
63445;DHT22;49573;47.682;9.170;2023-09-19T07:00:57;17.50;79.50
63445;DHT22;49573;47.682;9.170;2023-09-19T07:03:43;17.60;79.40
63445;DHT22;49573;47.682;9.170;2023-09-19T07:06:32;17.70;79.00
63445;DHT22;49573;47.682;9.170;2023-09-19T07:09:19;17.80;78.90
63445;DHT22;49573;47.682;9.170;2023-09-19T07:12:06;17.80;78.40
63445;DHT22;49573;47.682;9.170;2023-09-19T07:14:52;17.80;77.90
63445;DHT22;49573;47.682;9.170;2023-09-19T07:17:38;17.90;78.60
63445;DHT22;49573;47.682;9.170;2023-09-19T07:20:25;17.90;78.00
63445;DHT22;49573;47.682;9.170;2023-09-19T07:23:19;17.90;78.10
63445;DHT22;49573;47.682;9.170;2023-09-19T07:26:07;17.90;77.50
63445;DHT22;49573;47.682;9.170;2023-09-19T07:28:54;17.90;77.60
63445;DHT22;49573;47.682;9.170;2023-09-19T07:31:40;17.90;78.00
63445;DHT22;49573;47.682;9.170;2023-09-19T07:34:26;17.90;76.20
63445;DHT22;49573;47.682;9.170;2023-09-19T07:37:12;18.10;76.60
63445;DHT22;49573;47.682;9.170;2023-09-19T07:40:03;18.20;76.20
63445;DHT22;49573;47.682;9.170;2023-09-19T07:42:58;18.10;75.70
63445;DHT22;49573;47.682;9.170;2023-09-19T07:45:47;18.10;75.30
63445;DHT22;49573;47.682;9.170;2023-09-19T07:48:34;18.40;76.20
63445;DHT22;49573;47.682;9.170;2023-09-19T07:51:21;18.60;74.70
63445;DHT22;49573;47.682;9.170;2023-09-19T07:54:07;18.70;74.60
63445;DHT22;49573;47.682;9.170;2023-09-19T07:56:55;18.60;73.90
63445;DHT22;49573;47.682;9.170;2023-09-19T07:59:41;18.60;74.40
63445;DHT22;49573;47.682;9.170;2023-09-19T08:02:28;18.80;74.40
63445;DHT22;49573;47.682;9.170;2023-09-19T08:05:14;18.90;73.30
63445;DHT22;49573;47.682;9.170;2023-09-19T08:08:04;19.00;72.80
63445;DHT22;49573;47.682;9.170;2023-09-19T08:10:53;19.20;72.30
63445;DHT22;49573;47.682;9.170;2023-09-19T08:13:41;19.30;72.30
63445;DHT22;49573;47.682;9.170;2023-09-19T08:16:31;19.40;72.60
63445;DHT22;49573;47.682;9.170;2023-09-19T08:19:17;19.50;72.30
63445;DHT22;49573;47.682;9.170;2023-09-19T08:22:03;19.40;71.20
63445;DHT22;49573;47.682;9.170;2023-09-19T08:24:49;19.30;70.90
63445;DHT22;49573;47.682;9.170;2023-09-19T08:27:35;19.30;70.60
63445;DHT22;49573;47.682;9.170;2023-09-19T08:30:24;19.30;71.60
63445;DHT22;49573;47.682;9.170;2023-09-19T08:33:10;19.30;70.80
63445;DHT22;49573;47.682;9.170;2023-09-19T08:35:56;19.20;72.10
63445;DHT22;49573;47.682;9.170;2023-09-19T08:38:42;19.30;71.80
63445;DHT22;49573;47.682;9.170;2023-09-19T08:41:28;19.30;71.50
63445;DHT22;49573;47.682;9.170;2023-09-19T08:44:14;19.30;70.70
63445;DHT22;49573;47.682;9.170;2023-09-19T08:47:10;19.50;70.10
63445;DHT22;49573;47.682;9.170;2023-09-19T08:50:04;19.50;70.40
63445;DHT22;49573;47.682;9.170;2023-09-19T08:52:52;19.50;69.60
63445;DHT22;49573;47.682;9.170;2023-09-19T08:55:43;19.60;69.60
63445;DHT22;49573;47.682;9.170;2023-09-19T08:58:36;19.60;69.60
63445;DHT22;49573;47.682;9.170;2023-09-19T09:01:27;19.70;69.50
63445;DHT22;49573;47.682;9.170;2023-09-19T09:04:15;19.70;69.00
63445;DHT22;49573;47.682;9.170;2023-09-19T09:07:02;19.60;69.00
63445;DHT22;49573;47.682;9.170;2023-09-19T09:09:49;19.70;68.20
63445;DHT22;49573;47.682;9.170;2023-09-19T09:12:36;19.80;68.00
63445;DHT22;49573;47.682;9.170;2023-09-19T09:15:29;19.90;68.40
63445;DHT22;49573;47.682;9.170;2023-09-19T09:18:15;20.00;66.20
63445;DHT22;49573;47.682;9.170;2023-09-19T09:21:03;20.40;68.00
63445;DHT22;49573;47.682;9.170;2023-09-19T09:23:50;20.70;66.80
63445;DHT22;49573;47.682;9.170;2023-09-19T09:26:43;20.40;67.70
63445;DHT22;49573;47.682;9.170;2023-09-19T09:29:42;20.60;66.80
63445;DHT22;49573;47.682;9.170;2023-09-19T09:32:30;20.50;66.10
63445;DHT22;49573;47.682;9.170;2023-09-19T09:35:20;20.40;66.30
63445;DHT22;49573;47.682;9.170;2023-09-19T09:38:08;20.60;65.20
63445;DHT22;49573;47.682;9.170;2023-09-19T09:40:56;20.70;64.80
63445;DHT22;49573;47.682;9.170;2023-09-19T09:43:52;20.90;64.50
63445;DHT22;49573;47.682;9.170;2023-09-19T09:46:41;20.70;64.80
63445;DHT22;49573;47.682;9.170;2023-09-19T09:49:39;20.60;64.50
63445;DHT22;49573;47.682;9.170;2023-09-19T09:52:26;20.40;65.60
63445;DHT22;49573;47.682;9.170;2023-09-19T09:55:14;20.30;66.00
63445;DHT22;49573;47.682;9.170;2023-09-19T09:58:17;20.60;66.50
63445;DHT22;49573;47.682;9.170;2023-09-19T10:01:10;20.60;66.50
63445;DHT22;49573;47.682;9.170;2023-09-19T10:04:00;20.40;65.90
63445;DHT22;49573;47.682;9.170;2023-09-19T10:06:46;20.30;66.20
63445;DHT22;49573;47.682;9.170;2023-09-19T10:09:45;20.10;66.80
63445;DHT22;49573;47.682;9.170;2023-09-19T10:12:33;20.20;67.70
63445;DHT22;49573;47.682;9.170;2023-09-19T10:15:26;20.20;67.10
63445;DHT22;49573;47.682;9.170;2023-09-19T10:18:14;20.20;67.80
63445;DHT22;49573;47.682;9.170;2023-09-19T10:21:04;20.10;67.90
63445;DHT22;49573;47.682;9.170;2023-09-19T10:23:53;20.10;68.10
63445;DHT22;49573;47.682;9.170;2023-09-19T10:26:42;19.90;68.30
63445;DHT22;49573;47.682;9.170;2023-09-19T10:29:32;19.80;68.80
63445;DHT22;49573;47.682;9.170;2023-09-19T10:32:22;19.80;68.60
63445;DHT22;49573;47.682;9.170;2023-09-19T10:35:11;19.90;68.80
63445;DHT22;49573;47.682;9.170;2023-09-19T10:38:00;20.00;68.90
63445;DHT22;49573;47.682;9.170;2023-09-19T10:40:51;20.20;68.30
63445;DHT22;49573;47.682;9.170;2023-09-19T10:43:38;20.60;67.70
63445;DHT22;49573;47.682;9.170;2023-09-19T10:46:26;20.60;68.10
63445;DHT22;49573;47.682;9.170;2023-09-19T10:49:13;20.80;66.50
63445;DHT22;49573;47.682;9.170;2023-09-19T10:52:00;20.70;66.80
63445;DHT22;49573;47.682;9.170;2023-09-19T10:54:50;20.80;66.40
63445;DHT22;49573;47.682;9.170;2023-09-19T10:57:38;21.00;65.50
63445;DHT22;49573;47.682;9.170;2023-09-19T11:00:24;21.10;65.60
63445;DHT22;49573;47.682;9.170;2023-09-19T11:03:21;20.90;65.90
63445;DHT22;49573;47.682;9.170;2023-09-19T11:06:11;20.80;66.60
63445;DHT22;49573;47.682;9.170;2023-09-19T11:09:03;20.90;66.50
63445;DHT22;49573;47.682;9.170;2023-09-19T11:11:55;20.90;66.60
63445;DHT22;49573;47.682;9.170;2023-09-19T11:14:43;21.00;66.20
63445;DHT22;49573;47.682;9.170;2023-09-19T11:17:34;20.90;65.30
63445;DHT22;49573;47.682;9.170;2023-09-19T11:20:25;20.90;65.20
63445;DHT22;49573;47.682;9.170;2023-09-19T11:23:21;21.30;65.80
63445;DHT22;49573;47.682;9.170;2023-09-19T11:26:39;21.40;65.00
63445;DHT22;49573;47.682;9.170;2023-09-19T11:29:30;22.10;63.80
63445;DHT22;49573;47.682;9.170;2023-09-19T11:32:17;22.40;62.80
63445;DHT22;49573;47.682;9.170;2023-09-19T11:39:01;23.00;59.90
63445;DHT22;49573;47.682;9.170;2023-09-19T11:41:47;22.80;59.30
63445;DHT22;49573;47.682;9.170;2023-09-19T11:44:42;22.60;59.10
63445;DHT22;49573;47.682;9.170;2023-09-19T11:47:28;22.80;58.80
63445;DHT22;49573;47.682;9.170;2023-09-19T11:50:18;22.30;59.90
63445;DHT22;49573;47.682;9.170;2023-09-19T11:53:06;22.10;59.90
63445;DHT22;49573;47.682;9.170;2023-09-19T11:55:54;21.80;60.90
63445;DHT22;49573;47.682;9.170;2023-09-19T11:58:42;22.10;61.30
63445;DHT22;49573;47.682;9.170;2023-09-19T12:01:30;22.30;60.20
63445;DHT22;49573;47.682;9.170;2023-09-19T12:04:18;22.90;59.20
63445;DHT22;49573;47.682;9.170;2023-09-19T12:07:07;22.60;58.90
63445;DHT22;49573;47.682;9.170;2023-09-19T12:10:03;23.70;59.20
63445;DHT22;49573;47.682;9.170;2023-09-19T12:12:52;24.60;55.30
63445;DHT22;49573;47.682;9.170;2023-09-19T12:15:39;22.90;58.20
63445;DHT22;49573;47.682;9.170;2023-09-19T12:18:28;23.60;57.00
63445;DHT22;49573;47.682;9.170;2023-09-19T12:21:22;24.00;55.70
63445;DHT22;49573;47.682;9.170;2023-09-19T12:24:12;22.80;57.20
63445;DHT22;49573;47.682;9.170;2023-09-19T12:27:06;22.40;57.90
63445;DHT22;49573;47.682;9.170;2023-09-19T12:29:53;22.60;58.80
63445;DHT22;49573;47.682;9.170;2023-09-19T12:32:45;24.20;55.80
63445;DHT22;49573;47.682;9.170;2023-09-19T12:35:33;24.80;54.10
63445;DHT22;49573;47.682;9.170;2023-09-19T12:38:25;25.00;52.70
63445;DHT22;49573;47.682;9.170;2023-09-19T12:41:11;25.10;51.90
63445;DHT22;49573;47.682;9.170;2023-09-19T12:43:57;25.10;52.80
63445;DHT22;49573;47.682;9.170;2023-09-19T12:46:45;25.60;50.20
63445;DHT22;49573;47.682;9.170;2023-09-19T12:49:31;26.40;49.30
63445;DHT22;49573;47.682;9.170;2023-09-19T12:52:17;24.80;51.70
63445;DHT22;49573;47.682;9.170;2023-09-19T12:55:06;25.20;52.00
63445;DHT22;49573;47.682;9.170;2023-09-19T12:58:12;25.30;53.60
63445;DHT22;49573;47.682;9.170;2023-09-19T13:00:58;25.30;51.70
63445;DHT22;49573;47.682;9.170;2023-09-19T13:04:13;25.30;53.20
63445;DHT22;49573;47.682;9.170;2023-09-19T13:07:01;25.60;51.30
63445;DHT22;49573;47.682;9.170;2023-09-19T13:10:02;26.60;49.90
63445;DHT22;49573;47.682;9.170;2023-09-19T13:12:50;26.70;48.70
63445;DHT22;49573;47.682;9.170;2023-09-19T13:15:52;27.20;49.90
63445;DHT22;49573;47.682;9.170;2023-09-19T13:18:49;27.90;47.60
63445;DHT22;49573;47.682;9.170;2023-09-19T13:21:36;27.70;46.80
63445;DHT22;49573;47.682;9.170;2023-09-19T13:24:24;27.70;46.50
63445;DHT22;49573;47.682;9.170;2023-09-19T13:27:13;27.60;47.40
63445;DHT22;49573;47.682;9.170;2023-09-19T13:29:59;27.80;46.20
63445;DHT22;49573;47.682;9.170;2023-09-19T13:32:45;27.70;46.50
63445;DHT22;49573;47.682;9.170;2023-09-19T13:35:34;28.40;46.40
63445;DHT22;49573;47.682;9.170;2023-09-19T13:38:20;27.90;46.50
63445;DHT22;49573;47.682;9.170;2023-09-19T13:41:08;28.30;44.60
63445;DHT22;49573;47.682;9.170;2023-09-19T13:43:54;27.30;47.90
63445;DHT22;49573;47.682;9.170;2023-09-19T13:46:42;27.90;46.50
63445;DHT22;49573;47.682;9.170;2023-09-19T13:49:31;28.50;45.10
63445;DHT22;49573;47.682;9.170;2023-09-19T13:52:19;29.30;45.20
63445;DHT22;49573;47.682;9.170;2023-09-19T13:55:05;29.50;43.00
63445;DHT22;49573;47.682;9.170;2023-09-19T13:57:52;29.00;43.30
63445;DHT22;49573;47.682;9.170;2023-09-19T14:00:40;28.40;44.40
63445;DHT22;49573;47.682;9.170;2023-09-19T14:03:26;29.70;45.40
63445;DHT22;49573;47.682;9.170;2023-09-19T14:06:14;28.80;43.40
63445;DHT22;49573;47.682;9.170;2023-09-19T14:09:01;28.70;43.70
63445;DHT22;49573;47.682;9.170;2023-09-19T14:11:47;30.00;41.70
63445;DHT22;49573;47.682;9.170;2023-09-19T14:14:33;30.10;40.80
63445;DHT22;49573;47.682;9.170;2023-09-19T14:17:20;29.80;41.90
63445;DHT22;49573;47.682;9.170;2023-09-19T14:20:07;29.50;42.10
63445;DHT22;49573;47.682;9.170;2023-09-19T14:22:55;29.10;43.30
63445;DHT22;49573;47.682;9.170;2023-09-19T14:25:43;29.30;42.00
63445;DHT22;49573;47.682;9.170;2023-09-19T14:28:29;29.50;43.10
63445;DHT22;49573;47.682;9.170;2023-09-19T14:31:15;29.40;42.00
63445;DHT22;49573;47.682;9.170;2023-09-19T14:34:01;31.80;40.20
63445;DHT22;49573;47.682;9.170;2023-09-19T14:36:48;31.90;37.30
63445;DHT22;49573;47.682;9.170;2023-09-19T14:39:34;30.80;39.50
63445;DHT22;49573;47.682;9.170;2023-09-19T14:42:22;31.50;39.80
63445;DHT22;49573;47.682;9.170;2023-09-19T14:45:09;31.70;39.80
63445;DHT22;49573;47.682;9.170;2023-09-19T14:47:55;30.70;39.30
63445;DHT22;49573;47.682;9.170;2023-09-19T14:50:42;31.30;40.40
63445;DHT22;49573;47.682;9.170;2023-09-19T14:53:29;32.10;37.50
63445;DHT22;49573;47.682;9.170;2023-09-19T14:56:16;30.80;40.20
63445;DHT22;49573;47.682;9.170;2023-09-19T14:59:05;30.20;40.00
63445;DHT22;49573;47.682;9.170;2023-09-19T15:01:52;31.20;38.90
63445;DHT22;49573;47.682;9.170;2023-09-19T15:04:38;32.00;38.90
63445;DHT22;49573;47.682;9.170;2023-09-19T15:07:26;31.30;37.50
63445;DHT22;49573;47.682;9.170;2023-09-19T15:10:14;31.30;37.90
63445;DHT22;49573;47.682;9.170;2023-09-19T15:13:02;32.30;37.50
63445;DHT22;49573;47.682;9.170;2023-09-19T15:15:49;32.10;37.30
63445;DHT22;49573;47.682;9.170;2023-09-19T15:18:36;32.40;36.80
63445;DHT22;49573;47.682;9.170;2023-09-19T15:21:26;31.90;38.10
63445;DHT22;49573;47.682;9.170;2023-09-19T15:24:12;31.80;38.50
63445;DHT22;49573;47.682;9.170;2023-09-19T15:26:58;31.40;36.90
63445;DHT22;49573;47.682;9.170;2023-09-19T15:29:44;31.70;37.80
63445;DHT22;49573;47.682;9.170;2023-09-19T15:32:31;31.30;37.90
63445;DHT22;49573;47.682;9.170;2023-09-19T15:35:17;31.50;36.50
63445;DHT22;49573;47.682;9.170;2023-09-19T15:38:04;31.70;36.80
63445;DHT22;49573;47.682;9.170;2023-09-19T15:40:50;32.40;37.30
63445;DHT22;49573;47.682;9.170;2023-09-19T15:43:36;31.10;37.60
63445;DHT22;49573;47.682;9.170;2023-09-19T15:46:38;31.30;38.00
63445;DHT22;49573;47.682;9.170;2023-09-19T15:49:26;31.30;37.80
63445;DHT22;49573;47.682;9.170;2023-09-19T15:52:12;30.90;38.80
63445;DHT22;49573;47.682;9.170;2023-09-19T15:54:58;29.60;40.80
63445;DHT22;49573;47.682;9.170;2023-09-19T15:57:44;28.80;41.60
63445;DHT22;49573;47.682;9.170;2023-09-19T16:00:31;29.40;41.50
63445;DHT22;49573;47.682;9.170;2023-09-19T16:03:17;29.40;41.00
63445;DHT22;49573;47.682;9.170;2023-09-19T16:06:09;28.60;42.50
63445;DHT22;49573;47.682;9.170;2023-09-19T16:08:57;28.80;43.10
63445;DHT22;49573;47.682;9.170;2023-09-19T16:11:43;28.90;42.10
63445;DHT22;49573;47.682;9.170;2023-09-19T16:14:30;28.90;42.10
63445;DHT22;49573;47.682;9.170;2023-09-19T16:17:16;28.80;42.40
63445;DHT22;49573;47.682;9.170;2023-09-19T16:20:03;29.70;41.50
63445;DHT22;49573;47.682;9.170;2023-09-19T16:22:50;29.00;41.60
63445;DHT22;49573;47.682;9.170;2023-09-19T16:25:36;29.80;40.90
63445;DHT22;49573;47.682;9.170;2023-09-19T16:28:23;29.90;40.60
63445;DHT22;49573;47.682;9.170;2023-09-19T16:31:09;29.60;40.90
63445;DHT22;49573;47.682;9.170;2023-09-19T16:33:55;29.90;40.30
63445;DHT22;49573;47.682;9.170;2023-09-19T16:36:42;29.80;40.40
63445;DHT22;49573;47.682;9.170;2023-09-19T16:39:29;29.90;40.20
63445;DHT22;49573;47.682;9.170;2023-09-19T16:42:15;29.30;41.40
63445;DHT22;49573;47.682;9.170;2023-09-19T16:45:02;28.90;42.30
63445;DHT22;49573;47.682;9.170;2023-09-19T16:47:48;28.30;43.20
63445;DHT22;49573;47.682;9.170;2023-09-19T16:50:34;28.10;44.20
63445;DHT22;49573;47.682;9.170;2023-09-19T16:53:21;27.80;44.50
63445;DHT22;49573;47.682;9.170;2023-09-19T16:56:10;27.50;45.30
63445;DHT22;49573;47.682;9.170;2023-09-19T16:58:58;27.50;45.40
63445;DHT22;49573;47.682;9.170;2023-09-19T17:01:46;27.40;45.40
63445;DHT22;49573;47.682;9.170;2023-09-19T17:04:33;27.60;45.00
63445;DHT22;49573;47.682;9.170;2023-09-19T17:07:19;27.40;45.20
63445;DHT22;49573;47.682;9.170;2023-09-19T17:10:08;26.70;46.80
63445;DHT22;49573;47.682;9.170;2023-09-19T17:12:55;26.00;47.30
63445;DHT22;49573;47.682;9.170;2023-09-19T17:15:41;25.60;49.00
63445;DHT22;49573;47.682;9.170;2023-09-19T17:18:28;25.40;49.40
63445;DHT22;49573;47.682;9.170;2023-09-19T17:21:14;25.20;50.80
63445;DHT22;49573;47.682;9.170;2023-09-19T17:24:05;24.90;53.60
63445;DHT22;49573;47.682;9.170;2023-09-19T17:26:53;24.60;54.30
63445;DHT22;49573;47.682;9.170;2023-09-19T17:29:41;24.30;55.10
63445;DHT22;49573;47.682;9.170;2023-09-19T17:32:27;24.10;56.00
63445;DHT22;49573;47.682;9.170;2023-09-19T17:35:13;23.80;56.60
63445;DHT22;49573;47.682;9.170;2023-09-19T17:38:04;23.50;57.00
63445;DHT22;49573;47.682;9.170;2023-09-19T17:40:50;23.30;57.60
63445;DHT22;49573;47.682;9.170;2023-09-19T17:43:37;23.10;57.90
63445;DHT22;49573;47.682;9.170;2023-09-19T17:46:25;22.80;59.30